Keflavikurflugvollur, Iceland
Current Conditions -  °F | °C
As of 5:00 PM on Thursday 23 Oct 2014 (Local Time) from BIKF Reporting Station
Broken Clouds Broken Clouds  
Wind Chill: 34°   Ceiling: 15000
Heat Index: 39°   Visibility: 6mi
Dew Point: 34°   Wind: 8mph
Humidity: 81%   Direction: 270°W
Pressure: 29.03"   Gusts: NA
Location:  63.97°N, 22.6°W
Report Text: BIKF 231700Z 27007KT 9999 FEW024CB SCT040 BKN150 04/01 Q0983
Loading
Personal Weather Stations






























Interactive Weather Map
Tropical Storm Tracking
New forecast layout! Learn more

10-Day Weather Forecast

Advertisements
Track Severe Weather on mobile